GMME/RBA METAR and TAF weather

Enter ICAO airport designator
Station Type Date Time Source
GMME METAR 2019/05/27 10:00 UTC NOAA

GMME 271000Z 32008KT CAVOK 25/15 Q1012 NOSIG


Station Type Date Time Source
GMME Decoded METAR 2019/05/27 10:00 UTC NOAA

Rabat-Sale, Morocco (GMME) 34-03N 006-46W 75M
May 27, 2019 - 06:00 AM EDT / 2019.05.27 1000 UTC
Wind: from the NW (320 degrees) at 9 MPH (8 KT):0
Visibility: greater than 7 mile(s):0
Temperature: 77 F (25 C)
Dew Point: 59 F (15 C)
Relative Humidity: 53%
Pressure (altimeter): 29.88 in. Hg (1012 hPa)
ob: GMME 271000Z 32008KT CAVOK 25/15 Q1012 NOSIG
cycle: 10

Station Type Date Time Source
GMME TAF 2019/05/27 06:15 UTC NOAA

TAF GMME 270500Z 2706/2812 18003KT 6000 NSC
TEMPO 2708/2718 32010KT CAVOK
BECMG 2720/2724 VRB02KT

Example: see airport list